createdAt,value
2022-08-05T00:01:27.996Z,52.28
2022-08-05T00:04:14.566Z,52.09
2022-08-05T00:06:59.945Z,52.24
2022-08-05T00:09:45.511Z,52.08
2022-08-05T00:12:31.060Z,52.06
2022-08-05T00:15:56.348Z,52.28
2022-08-05T00:18:22.613Z,52.00
2022-08-05T00:21:08.613Z,52.24
2022-08-05T00:24:09.860Z,51.91
2022-08-05T00:26:56.743Z,52.05
2022-08-05T00:29:44.551Z,52.19
2022-08-05T00:32:29.658Z,52.29
2022-08-05T00:35:14.954Z,52.29
2022-08-05T00:38:05.757Z,51.79
2022-08-05T00:40:56.699Z,52.13
2022-08-05T00:43:49.971Z,51.92
2022-08-05T00:46:42.673Z,51.80
2022-08-05T00:49:32.596Z,51.95
2022-08-05T00:52:18.834Z,52.29
2022-08-05T00:55:14.823Z,51.84
2022-08-05T00:58:00.915Z,52.06
2022-08-05T01:00:47.884Z,51.75
2022-08-05T01:03:36.002Z,51.85
2022-08-05T01:06:21.526Z,52.20
2022-08-05T01:09:20.015Z,52.50
2022-08-05T01:12:18.846Z,52.58
2022-08-05T01:15:35.127Z,52.33
2022-08-05T01:18:23.157Z,52.41
2022-08-05T01:21:37.852Z,52.13
2022-08-05T01:24:23.829Z,52.24
2022-08-05T01:27:19.180Z,52.19
2022-08-05T01:30:05.459Z,51.92
2022-08-05T01:33:09.415Z,51.89
2022-08-05T01:35:59.421Z,51.91
2022-08-05T01:38:48.538Z,52.22
2022-08-05T01:41:37.662Z,51.90
2022-08-05T01:44:24.686Z,51.80
2022-08-05T01:47:21.466Z,51.72
2022-08-05T01:50:15.157Z,52.16
2022-08-05T01:53:04.379Z,51.85
2022-08-05T01:55:50.795Z,51.96
2022-08-05T01:58:45.006Z,51.80
2022-08-05T02:01:40.236Z,51.90
2022-08-05T02:04:28.890Z,51.72
2022-08-05T02:07:22.035Z,51.63
2022-08-05T02:10:08.468Z,51.64
2022-08-05T02:12:58.351Z,51.56
2022-08-05T02:15:51.870Z,51.32
2022-08-05T02:18:44.741Z,51.56
2022-08-05T02:21:38.000Z,51.52
2022-08-05T02:24:37.556Z,51.57
2022-08-05T02:27:29.860Z,51.81
2022-08-05T02:30:51.502Z,51.80
2022-08-05T02:33:42.059Z,51.77
2022-08-05T02:36:31.663Z,52.12
2022-08-05T02:39:21.710Z,52.07
2022-08-05T02:42:09.169Z,51.66
2022-08-05T02:44:55.951Z,51.95
2022-08-05T02:48:07.058Z,51.59
2022-08-05T02:50:51.546Z,51.90
2022-08-05T02:53:39.387Z,52.07
2022-08-05T02:56:27.520Z,52.06
2022-08-05T02:59:15.760Z,51.75
2022-08-05T03:02:04.784Z,51.73
2022-08-05T03:04:53.480Z,52.03
2022-08-05T03:08:06.717Z,51.42
2022-08-05T03:11:41.270Z,51.68
2022-08-05T03:14:03.289Z,51.69
2022-08-05T03:16:49.278Z,51.58
2022-08-05T03:19:38.479Z,51.28
2022-08-05T03:22:31.864Z,51.39
2022-08-05T03:25:32.989Z,51.61
2022-08-05T03:28:26.681Z,51.41
2022-08-05T03:31:18.257Z,50.94
2022-08-05T03:34:18.107Z,51.07
2022-08-05T03:37:04.659Z,51.05
2022-08-05T03:39:59.113Z,50.87
2022-08-05T03:42:52.075Z,50.98
2022-08-05T03:45:57.151Z,50.70
2022-08-05T03:48:45.335Z,50.45
2022-08-05T03:52:38.839Z,50.68
2022-08-05T03:56:05.995Z,50.78
2022-08-05T03:58:12.239Z,50.30
2022-08-05T04:01:01.891Z,50.75
2022-08-05T04:04:08.832Z,50.40
2022-08-05T04:06:56.056Z,50.40
2022-08-05T04:09:53.788Z,50.07
2022-08-05T04:15:24.372Z,49.98
2022-08-05T04:18:12.746Z,49.62
2022-08-05T04:21:11.102Z,50.05
2022-08-05T04:24:06.776Z,49.95
2022-08-05T04:26:54.471Z,50.25
2022-08-05T04:29:43.658Z,50.43
2022-08-05T04:32:31.189Z,50.24
2022-08-05T04:35:19.497Z,50.21
2022-08-05T04:38:06.633Z,50.14
2022-08-05T04:40:52.625Z,50.64
2022-08-05T04:43:40.552Z,49.98
2022-08-05T04:46:33.565Z,50.42
2022-08-05T04:49:24.668Z,50.57
2022-08-05T04:52:23.631Z,50.35
2022-08-05T04:55:14.675Z,50.20
2022-08-05T04:58:00.851Z,50.09
2022-08-05T05:00:46.725Z,50.16
2022-08-05T05:03:42.271Z,50.03
2022-08-05T05:06:40.752Z,50.41
2022-08-05T05:09:30.679Z,50.25
2022-08-05T05:12:16.954Z,50.38
2022-08-05T05:15:03.554Z,50.36
2022-08-05T05:17:55.587Z,50.50
2022-08-05T05:20:46.863Z,50.92
2022-08-05T05:23:39.206Z,50.98
2022-08-05T05:26:42.539Z,50.75
2022-08-05T05:30:04.516Z,50.90
2022-08-05T05:32:37.786Z,50.55
2022-08-05T05:35:26.525Z,51.00
2022-08-05T05:38:13.136Z,50.88
2022-08-05T05:40:59.717Z,50.79
2022-08-05T05:43:56.791Z,50.77
2022-08-05T05:46:45.891Z,50.80
2022-08-05T05:49:33.485Z,50.62
2022-08-05T05:52:26.355Z,50.60
2022-08-05T05:55:18.137Z,50.56
2022-08-05T05:58:04.387Z,50.33
2022-08-05T06:00:49.650Z,50.42
2022-08-05T06:03:54.094Z,50.36
2022-08-05T06:06:47.774Z,50.26
2022-08-05T06:10:00.535Z,50.05
2022-08-05T06:12:42.350Z,50.39
2022-08-05T06:16:29.066Z,50.30
2022-08-05T06:18:33.361Z,50.44
2022-08-05T06:21:24.580Z,50.11
2022-08-05T06:24:25.775Z,50.08
2022-08-05T06:28:09.469Z,49.73
2022-08-05T06:30:21.305Z,50.36
2022-08-05T06:33:10.676Z,50.25
2022-08-05T06:36:07.160Z,50.03
2022-08-05T06:38:55.233Z,49.63
2022-08-05T06:41:40.619Z,50.26
2022-08-05T06:44:27.586Z,50.45
2022-08-05T06:47:29.962Z,50.86
2022-08-05T06:50:18.665Z,50.44
2022-08-05T06:53:11.630Z,50.93
2022-08-05T06:56:25.970Z,51.12
2022-08-05T06:59:14.484Z,51.04
2022-08-05T07:02:00.691Z,51.67
2022-08-05T07:04:46.260Z,51.83
2022-08-05T07:07:42.999Z,52.07
2022-08-05T07:10:30.516Z,52.44
2022-08-05T07:13:57.089Z,52.74
2022-08-05T07:17:58.779Z,53.21
2022-08-05T07:23:02.125Z,53.66
2022-08-05T07:25:54.785Z,54.12
2022-08-05T07:28:42.255Z,54.95
2022-08-05T07:31:41.015Z,55.34
2022-08-05T07:34:32.929Z,54.97
2022-08-05T07:37:18.278Z,54.60
2022-08-05T07:40:32.251Z,55.57
2022-08-05T07:43:20.292Z,55.19
2022-08-05T07:46:06.384Z,55.37
2022-08-05T07:49:10.149Z,55.26
2022-08-05T07:51:55.489Z,55.36
2022-08-05T07:54:49.155Z,55.57
2022-08-05T07:57:56.248Z,55.15
2022-08-05T08:00:41.578Z,55.40
2022-08-05T08:03:44.933Z,55.41
2022-08-05T08:06:31.071Z,55.70
2022-08-05T08:09:16.295Z,55.73
2022-08-05T08:12:12.510Z,55.62
2022-08-05T08:15:15.552Z,55.59
2022-08-05T08:18:02.199Z,56.09
2022-08-05T08:21:02.225Z,56.22
2022-08-05T08:24:02.638Z,56.24
2022-08-05T08:26:50.893Z,55.94
2022-08-05T08:30:04.058Z,56.46
2022-08-05T08:32:43.873Z,56.17
2022-08-05T08:35:29.169Z,56.24
2022-08-05T08:38:35.166Z,56.23
2022-08-05T08:41:26.317Z,56.45
2022-08-05T08:45:25.162Z,56.39
2022-08-05T08:48:06.847Z,56.45
2022-08-05T08:51:03.069Z,56.60
2022-08-05T08:53:50.192Z,56.49
2022-08-05T08:56:47.825Z,56.19
2022-08-05T08:59:35.802Z,56.48
2022-08-05T09:02:21.975Z,56.53
2022-08-05T09:05:17.616Z,56.34
2022-08-05T09:08:03.448Z,56.16
2022-08-05T09:10:51.255Z,56.47
2022-08-05T09:13:41.529Z,56.20
2022-08-05T09:16:42.637Z,56.16
2022-08-05T09:19:36.401Z,56.04
2022-08-05T09:22:31.643Z,55.90
2022-08-05T09:25:24.303Z,56.22
2022-08-05T09:28:32.404Z,55.65
2022-08-05T09:32:38.968Z,55.71
2022-08-05T09:34:26.132Z,56.36
2022-08-05T09:37:18.650Z,55.74
2022-08-05T09:40:32.147Z,55.70
2022-08-05T09:43:40.723Z,55.55
2022-08-05T09:46:28.878Z,55.69
2022-08-05T09:49:23.489Z,55.78
2022-08-05T09:52:31.763Z,55.93
2022-08-05T09:55:57.428Z,55.86
2022-08-05T09:58:22.508Z,56.16
2022-08-05T10:01:15.755Z,56.15
2022-08-05T10:04:18.445Z,55.88
2022-08-05T10:07:14.152Z,55.91
2022-08-05T10:10:15.069Z,55.93
2022-08-05T10:13:02.720Z,55.61
2022-08-05T10:15:58.206Z,56.12
2022-08-05T10:18:47.957Z,55.77
2022-08-05T10:21:35.242Z,55.85
2022-08-05T10:24:26.978Z,55.66
2022-08-05T10:27:14.962Z,56.44
2022-08-05T10:30:07.209Z,55.84
2022-08-05T10:33:14.524Z,56.17
2022-08-05T10:36:05.701Z,56.47
2022-08-05T10:38:57.195Z,56.61
2022-08-05T10:42:01.026Z,57.40
2022-08-05T10:44:46.646Z,56.94
2022-08-05T10:47:35.995Z,56.76
2022-08-05T10:50:36.524Z,56.30
2022-08-05T10:53:55.857Z,56.66
2022-08-05T10:57:01.795Z,56.44
2022-08-05T11:00:04.150Z,56.39
2022-08-05T11:03:23.012Z,56.23
2022-08-05T11:06:15.087Z,56.51
2022-08-05T11:09:24.456Z,56.34
2022-08-05T11:12:38.259Z,56.83
2022-08-05T11:16:00.430Z,56.08
2022-08-05T11:18:47.269Z,56.34
2022-08-05T11:21:48.723Z,56.14
2022-08-05T11:24:35.360Z,56.18
2022-08-05T11:27:50.914Z,56.45
2022-08-05T11:30:58.938Z,55.90
2022-08-05T11:33:51.687Z,56.10
2022-08-05T11:36:52.807Z,56.40
2022-08-05T11:40:00.634Z,56.22
2022-08-05T11:42:50.091Z,56.25
2022-08-05T11:46:14.938Z,56.19
2022-08-05T11:48:54.937Z,56.17
2022-08-05T11:51:49.527Z,55.94
2022-08-05T11:54:38.296Z,56.23
2022-08-05T11:58:08.146Z,56.18
2022-08-05T12:00:37.723Z,55.61
2022-08-05T12:03:31.506Z,55.55
2022-08-05T12:06:19.663Z,55.76
2022-08-05T12:09:05.851Z,56.03
2022-08-05T12:11:51.769Z,55.49
2022-08-05T12:14:40.246Z,55.54
2022-08-05T12:18:03.614Z,55.88
2022-08-05T12:20:41.581Z,55.59
2022-08-05T12:23:27.363Z,55.54
2022-08-05T12:26:12.974Z,55.35
2022-08-05T12:28:58.379Z,54.83
2022-08-05T12:31:57.032Z,55.23
2022-08-05T12:34:43.464Z,55.16
2022-08-05T12:37:32.129Z,55.01
2022-08-05T12:40:26.882Z,54.79
2022-08-05T12:43:21.068Z,55.07
2022-08-05T12:46:06.982Z,54.63
2022-08-05T12:49:13.517Z,54.40
2022-08-05T12:52:10.625Z,54.66
2022-08-05T12:54:59.872Z,54.31
2022-08-05T12:58:49.002Z,54.49
2022-08-05T13:02:01.735Z,54.53
2022-08-05T13:03:56.680Z,54.06
2022-08-05T13:06:51.572Z,53.67
2022-08-05T13:09:37.320Z,53.46
2022-08-05T13:12:28.357Z,53.61
2022-08-05T13:15:18.020Z,53.52
2022-08-05T13:18:09.584Z,53.52
2022-08-05T13:20:55.370Z,53.40
2022-08-05T13:23:50.751Z,53.52
2022-08-05T13:26:37.714Z,53.57
2022-08-05T13:29:37.300Z,53.45
2022-08-05T13:32:30.889Z,52.67
2022-08-05T13:35:22.160Z,52.75
2022-08-05T13:38:28.110Z,52.55
2022-08-05T13:41:17.256Z,52.11
2022-08-05T13:44:03.581Z,52.34
2022-08-05T13:47:01.928Z,52.60
2022-08-05T13:49:51.524Z,52.90
2022-08-05T13:52:37.136Z,53.73
2022-08-05T13:55:41.131Z,53.02
2022-08-05T13:58:30.760Z,53.06
2022-08-05T14:01:16.781Z,52.51
2022-08-05T14:04:20.863Z,51.78
2022-08-05T14:07:25.132Z,51.96
2022-08-05T14:10:19.254Z,51.37
2022-08-05T14:13:15.425Z,51.67
2022-08-05T14:16:05.914Z,51.52
2022-08-05T14:18:54.769Z,51.78
2022-08-05T14:22:11.446Z,51.66
2022-08-05T14:24:48.578Z,52.13
2022-08-05T14:27:36.089Z,52.27
2022-08-05T14:30:27.874Z,53.34
2022-08-05T14:33:16.300Z,53.16
2022-08-05T14:36:08.473Z,53.55
2022-08-05T14:38:54.192Z,53.10
2022-08-05T14:41:39.396Z,53.55
2022-08-05T14:44:33.714Z,53.72
2022-08-05T14:48:02.797Z,53.22
2022-08-05T14:50:25.331Z,52.83
2022-08-05T14:53:10.864Z,52.43
2022-08-05T14:55:56.263Z,52.32
2022-08-05T14:58:47.896Z,52.12
2022-08-05T15:01:48.114Z,52.35
2022-08-05T15:04:34.873Z,51.93
2022-08-05T15:08:05.540Z,52.05
2022-08-05T15:10:28.845Z,52.12
2022-08-05T15:13:14.392Z,51.59
2022-08-05T15:16:00.061Z,51.53
2022-08-05T15:18:47.214Z,51.17
2022-08-05T15:21:32.583Z,51.37
2022-08-05T15:24:20.908Z,51.32
2022-08-05T15:27:08.917Z,51.26
2022-08-05T15:29:56.766Z,51.52
2022-08-05T15:32:42.332Z,51.82
2022-08-05T15:35:27.852Z,51.77
2022-08-05T15:38:33.877Z,51.70
2022-08-05T15:41:24.558Z,52.68
2022-08-05T15:44:30.370Z,53.03
2022-08-05T15:47:16.150Z,53.12
2022-08-05T15:50:03.620Z,53.34
2022-08-05T15:52:54.535Z,52.98
2022-08-05T15:56:02.839Z,53.30
2022-08-05T15:58:49.986Z,53.37
2022-08-05T16:01:39.479Z,53.04
2022-08-05T16:04:26.044Z,52.94
2022-08-05T16:07:12.227Z,53.01
2022-08-05T16:09:59.124Z,53.35
2022-08-05T16:12:44.682Z,53.39
2022-08-05T16:15:32.270Z,53.19
2022-08-05T16:18:18.732Z,53.18
2022-08-05T16:21:05.659Z,53.08
2022-08-05T16:23:54.651Z,52.80
2022-08-05T16:26:58.670Z,52.49
2022-08-05T16:29:50.779Z,53.46
2022-08-05T16:32:37.030Z,53.01
2022-08-05T16:35:28.130Z,52.99
2022-08-05T16:38:25.165Z,53.14
2022-08-05T16:42:12.372Z,52.97
2022-08-05T16:44:18.393Z,53.09
2022-08-05T16:47:07.014Z,52.67
2022-08-05T16:50:12.933Z,52.42
2022-08-05T16:53:12.015Z,52.90
2022-08-05T16:55:58.146Z,52.67
2022-08-05T16:58:44.430Z,52.60
2022-08-05T17:01:52.528Z,52.57
2022-08-05T17:04:35.192Z,52.40
2022-08-05T17:07:43.759Z,51.96
2022-08-05T17:10:31.522Z,51.87
2022-08-05T17:13:21.301Z,52.07
2022-08-05T17:16:33.559Z,51.78
2022-08-05T17:19:23.368Z,52.13
2022-08-05T17:22:09.729Z,52.29
2022-08-05T17:25:09.701Z,51.99
2022-08-05T17:28:11.070Z,52.10
2022-08-05T17:31:00.956Z,52.74
2022-08-05T17:33:53.930Z,52.67
2022-08-05T17:36:44.225Z,52.29
2022-08-05T17:39:33.992Z,52.45
2022-08-05T17:42:23.693Z,52.64
2022-08-05T17:45:20.927Z,52.58
2022-08-05T17:48:08.107Z,52.81
2022-08-05T17:50:53.911Z,53.13
2022-08-05T17:53:39.869Z,53.41
2022-08-05T17:56:28.444Z,53.44
2022-08-05T17:59:13.998Z,53.87
2022-08-05T18:02:10.745Z,53.96
2022-08-05T18:04:56.256Z,54.83
2022-08-05T18:07:42.447Z,55.08
2022-08-05T18:10:27.674Z,55.42
2022-08-05T18:13:17.396Z,55.39
2022-08-05T18:16:00.633Z,55.73
2022-08-05T18:18:48.059Z,55.56
2022-08-05T18:22:08.589Z,55.86
2022-08-05T18:24:45.175Z,56.00
2022-08-05T18:27:30.644Z,56.19
2022-08-05T18:30:17.520Z,56.05
2022-08-05T18:33:03.666Z,56.66
2022-08-05T18:36:01.031Z,56.19
2022-08-05T18:38:49.686Z,56.21
2022-08-05T18:41:56.462Z,55.88
2022-08-05T18:44:49.317Z,55.62
2022-08-05T18:47:41.502Z,56.24
2022-08-05T18:50:46.803Z,56.41
2022-08-05T18:53:34.708Z,56.08
2022-08-05T18:56:29.283Z,56.07
2022-08-05T18:59:44.437Z,55.92
2022-08-05T19:02:27.828Z,55.74
2022-08-05T19:06:12.227Z,56.13
2022-08-05T19:08:21.490Z,56.20
2022-08-05T19:11:07.488Z,56.30
2022-08-05T19:14:01.814Z,56.54
2022-08-05T19:16:57.156Z,56.69
2022-08-05T19:19:46.862Z,56.67
2022-08-05T19:22:34.253Z,56.68
2022-08-05T19:25:29.853Z,57.03
2022-08-05T19:28:16.531Z,56.93
2022-08-05T19:31:05.767Z,56.76
2022-08-05T19:33:56.284Z,56.96
2022-08-05T19:36:42.612Z,57.06
2022-08-05T19:39:30.311Z,57.23
2022-08-05T19:42:18.619Z,57.30
2022-08-05T19:45:23.203Z,57.06
2022-08-05T19:48:14.434Z,56.95
2022-08-05T19:51:00.318Z,56.92
2022-08-05T19:54:03.549Z,56.97
2022-08-05T19:56:50.688Z,57.02
2022-08-05T20:00:00.606Z,56.78
2022-08-05T20:02:42.909Z,56.80
2022-08-05T20:05:28.264Z,56.67
2022-08-05T20:08:30.463Z,56.78
2022-08-05T20:11:18.007Z,56.58
2022-08-05T20:14:12.665Z,56.42
2022-08-05T20:17:03.469Z,56.27
2022-08-05T20:19:56.608Z,56.16
2022-08-05T20:22:46.741Z,56.13
2022-08-05T20:25:33.885Z,55.86
2022-08-05T20:28:25.472Z,55.46
2022-08-05T20:31:12.943Z,55.75
2022-08-05T20:33:58.437Z,55.53
2022-08-05T20:36:43.901Z,55.58
2022-08-05T20:39:36.576Z,55.33
2022-08-05T20:42:22.467Z,54.97
2022-08-05T20:45:08.183Z,54.67
2022-08-05T20:47:53.443Z,54.91
2022-08-05T20:50:42.446Z,54.63
2022-08-05T20:53:36.864Z,54.58
2022-08-05T20:56:29.815Z,54.51
2022-08-05T20:59:26.247Z,54.49
2022-08-05T21:02:12.522Z,54.30
2022-08-05T21:05:04.207Z,54.42
2022-08-05T21:07:54.785Z,53.96
2022-08-05T21:10:48.468Z,54.33
2022-08-05T21:13:47.463Z,54.34
2022-08-05T21:16:40.088Z,54.28
2022-08-05T21:19:25.438Z,54.04
2022-08-05T21:22:13.719Z,53.70
2022-08-05T21:24:59.985Z,54.06
2022-08-05T21:27:47.679Z,53.94
2022-08-05T21:30:39.038Z,53.62
2022-08-05T21:33:26.705Z,53.58
2022-08-05T21:36:29.801Z,53.41
2022-08-05T21:39:16.992Z,53.39
2022-08-05T21:42:19.823Z,53.25
2022-08-05T21:45:24.612Z,53.22
2022-08-05T21:48:23.059Z,53.17
2022-08-05T21:52:16.503Z,52.97
2022-08-05T21:54:14.989Z,52.82
2022-08-05T21:57:30.954Z,52.82
2022-08-05T22:00:11.404Z,52.77
2022-08-05T22:03:00.486Z,52.81
2022-08-05T22:05:49.199Z,52.45
2022-08-05T22:08:34.772Z,52.75
2022-08-05T22:11:35.085Z,52.46
2022-08-05T22:14:35.515Z,52.44
2022-08-05T22:17:23.389Z,52.23
2022-08-05T22:20:14.886Z,51.76
2022-08-05T22:23:21.598Z,51.75
2022-08-05T22:26:25.862Z,50.71
2022-08-05T22:29:12.171Z,50.11
2022-08-05T22:32:03.346Z,48.90
2022-08-05T22:34:48.986Z,48.93
2022-08-05T22:37:58.806Z,47.50
2022-08-05T22:40:40.429Z,47.45
2022-08-05T22:43:36.580Z,46.91
2022-08-05T22:46:23.599Z,47.47
2022-08-05T22:50:17.948Z,47.93
2022-08-05T22:52:22.856Z,48.07
2022-08-05T22:55:21.457Z,48.57
2022-08-05T22:58:07.172Z,48.86
2022-08-05T23:00:57.189Z,48.63
2022-08-05T23:03:58.950Z,48.32
2022-08-05T23:06:45.473Z,48.23
2022-08-05T23:09:53.345Z,48.30
2022-08-05T23:12:40.585Z,48.43
2022-08-05T23:15:34.792Z,48.78
2022-08-05T23:18:21.167Z,48.48
2022-08-05T23:21:10.052Z,48.65
2022-08-05T23:23:55.834Z,49.48
2022-08-05T23:26:41.013Z,49.18
2022-08-05T23:29:29.302Z,49.39
2022-08-05T23:32:22.491Z,49.34
2022-08-05T23:35:09.009Z,49.17
2022-08-05T23:37:54.322Z,49.17
2022-08-05T23:40:40.581Z,49.05
2022-08-05T23:44:04.982Z,49.05
2022-08-05T23:46:33.324Z,49.18
2022-08-05T23:49:33.899Z,49.42
2022-08-05T23:52:29.354Z,49.74
2022-08-05T23:55:16.053Z,49.59
2022-08-05T23:58:02.825Z,49.82
